createdAt,value
2018-04-29T00:01:52.985Z,12.70
2018-04-29T00:04:20.420Z,12.80
2018-04-29T00:06:48.622Z,12.50
2018-04-29T00:09:16.083Z,12.50
2018-04-29T00:11:44.292Z,12.50
2018-04-29T00:14:11.743Z,12.40
2018-04-29T00:16:39.183Z,12.50
2018-04-29T00:19:06.649Z,12.60
2018-04-29T00:21:34.865Z,12.60
2018-04-29T00:24:02.302Z,12.50
2018-04-29T00:26:29.761Z,12.50
2018-04-29T00:28:57.234Z,12.40
2018-04-29T00:31:24.668Z,12.60
2018-04-29T00:33:52.119Z,12.60
2018-04-29T00:36:19.572Z,12.50
2018-04-29T00:38:47.788Z,12.40
2018-04-29T00:41:15.242Z,12.40
2018-04-29T00:43:42.691Z,12.40
2018-04-29T00:46:10.908Z,12.50
2018-04-29T00:48:38.348Z,12.40
2018-04-29T00:51:06.577Z,12.60
2018-04-29T00:53:34.033Z,12.60
2018-04-29T00:56:01.490Z,12.60
2018-04-29T00:58:28.944Z,12.70
2018-04-29T01:00:57.568Z,12.60
2018-04-29T01:03:25.023Z,12.60
2018-04-29T01:05:52.558Z,12.60
2018-04-29T01:08:20.683Z,12.40
2018-04-29T01:10:48.145Z,12.40
2018-04-29T01:13:15.593Z,12.40
2018-04-29T01:15:43.811Z,12.20
2018-04-29T01:18:11.296Z,12.20
2018-04-29T01:20:38.761Z,12.20
2018-04-29T01:23:06.213Z,12.10
2018-04-29T01:25:33.676Z,12.00
2018-04-29T01:28:01.115Z,12.10
2018-04-29T01:30:28.570Z,12.00
2018-04-29T01:32:56.012Z,11.90
2018-04-29T01:35:23.536Z,12.00
2018-04-29T01:37:50.911Z,12.00
2018-04-29T01:40:18.359Z,11.90
2018-04-29T01:42:46.588Z,11.90
2018-04-29T01:45:14.049Z,11.80
2018-04-29T01:47:41.483Z,11.70
2018-04-29T01:50:09.704Z,11.60
2018-04-29T01:52:37.140Z,11.50
2018-04-29T01:55:05.365Z,11.60
2018-04-29T01:57:32.807Z,11.60
2018-04-29T02:00:01.033Z,11.70
2018-04-29T02:02:28.484Z,11.60
2018-04-29T02:04:55.957Z,11.50
2018-04-29T02:07:23.408Z,11.50
2018-04-29T02:09:51.629Z,11.50
2018-04-29T02:12:19.086Z,11.50
2018-04-29T02:14:46.541Z,11.50
2018-04-29T02:17:13.979Z,11.40
2018-04-29T02:19:42.213Z,11.30
2018-04-29T02:22:09.657Z,11.30
2018-04-29T02:24:37.129Z,11.40
2018-04-29T02:27:04.567Z,11.40
2018-04-29T02:29:32.007Z,11.40
2018-04-29T02:31:59.479Z,11.40
2018-04-29T02:34:26.915Z,11.40
2018-04-29T02:36:54.370Z,11.40
2018-04-29T02:39:21.825Z,11.50
2018-04-29T02:41:50.057Z,11.40
2018-04-29T02:44:17.509Z,11.30
2018-04-29T02:46:44.960Z,11.30
2018-04-29T02:49:13.163Z,11.30
2018-04-29T02:51:40.624Z,11.30
2018-04-29T02:54:08.080Z,11.30
2018-04-29T02:56:35.535Z,11.30
2018-04-29T02:59:03.757Z,11.20
2018-04-29T03:01:31.216Z,11.20
2018-04-29T03:03:58.666Z,11.20
2018-04-29T03:06:26.908Z,11.20
2018-04-29T03:08:54.359Z,11.20
2018-04-29T03:11:21.817Z,11.20
2018-04-29T03:13:49.332Z,11.30
2018-04-29T03:16:16.792Z,11.20
2018-04-29T03:18:44.226Z,11.10
2018-04-29T03:21:11.689Z,11.00
2018-04-29T03:23:39.146Z,11.00
2018-04-29T03:26:06.612Z,11.10
2018-04-29T03:28:34.828Z,10.90
2018-04-29T03:31:02.297Z,10.90
2018-04-29T03:33:29.745Z,10.90
2018-04-29T03:35:57.208Z,10.80
2018-04-29T03:38:25.434Z,10.90
2018-04-29T03:40:52.895Z,10.90
2018-04-29T03:43:20.349Z,11.00
2018-04-29T03:45:47.820Z,11.00
2018-04-29T03:48:15.284Z,11.00
2018-04-29T03:50:42.741Z,10.90
2018-04-29T03:53:10.192Z,10.80
2018-04-29T03:55:38.420Z,10.80
2018-04-29T03:58:17.836Z,10.70
2018-04-29T04:00:58.048Z,10.90
2018-04-29T04:03:37.476Z,10.80
2018-04-29T04:06:04.944Z,10.90
2018-04-29T04:08:32.396Z,10.90
2018-04-29T04:11:00.628Z,10.90
2018-04-29T04:13:28.080Z,10.90
2018-04-29T04:15:55.565Z,11.00
2018-04-29T04:18:23.029Z,10.90
2018-04-29T04:20:50.511Z,11.00
2018-04-29T04:23:17.968Z,11.10
2018-04-29T04:25:45.440Z,11.00
2018-04-29T04:28:12.901Z,10.90
2018-04-29T04:30:40.373Z,10.90
2018-04-29T04:33:07.829Z,10.90
2018-04-29T04:35:35.300Z,10.90
2018-04-29T04:38:02.758Z,10.80
2018-04-29T04:40:30.229Z,10.90
2018-04-29T04:42:57.684Z,10.90
2018-04-29T04:45:25.157Z,10.80
2018-04-29T04:47:52.620Z,10.90
2018-04-29T04:50:20.853Z,10.80
2018-04-29T04:52:48.308Z,10.80
2018-04-29T04:55:15.760Z,10.80
2018-04-29T04:57:43.241Z,10.80
2018-04-29T05:00:10.752Z,10.80
2018-04-29T05:02:38.214Z,10.90
2018-04-29T05:05:05.672Z,11.00
2018-04-29T05:07:33.148Z,11.10
2018-04-29T05:10:00.613Z,11.20
2018-04-29T05:12:28.161Z,11.40
2018-04-29T05:14:55.629Z,11.40
2018-04-29T05:17:23.108Z,11.60
2018-04-29T05:19:50.557Z,11.60
2018-04-29T05:22:18.034Z,11.60
2018-04-29T05:24:45.481Z,11.80
2018-04-29T05:27:13.704Z,11.90
2018-04-29T05:29:41.156Z,11.80
2018-04-29T05:32:08.623Z,12.00
2018-04-29T05:34:36.076Z,11.90
2018-04-29T05:37:03.540Z,11.90
2018-04-29T05:39:31.760Z,11.70
2018-04-29T05:41:59.226Z,11.60
2018-04-29T05:44:26.685Z,11.60
2018-04-29T05:46:54.158Z,11.70
2018-04-29T05:49:21.618Z,11.60
2018-04-29T05:51:49.081Z,11.40
2018-04-29T05:54:16.536Z,11.30
2018-04-29T05:56:44.772Z,11.30
2018-04-29T05:59:12.225Z,11.20
2018-04-29T06:01:39.720Z,11.20
2018-04-29T06:04:07.173Z,11.20
2018-04-29T06:06:34.697Z,11.30
2018-04-29T06:09:02.092Z,11.20
2018-04-29T06:11:29.556Z,11.20
2018-04-29T06:13:57.050Z,11.20
2018-04-29T06:16:24.484Z,11.30
2018-04-29T06:18:52.704Z,11.50
2018-04-29T06:21:20.168Z,11.50
2018-04-29T06:23:49.400Z,11.60
2018-04-29T06:26:16.914Z,11.70
2018-04-29T06:28:45.218Z,12.00
2018-04-29T06:31:12.625Z,12.00
2018-04-29T06:33:40.072Z,12.20
2018-04-29T06:36:07.536Z,12.30
2018-04-29T06:38:34.997Z,12.40
2018-04-29T06:41:02.457Z,12.50
2018-04-29T06:43:29.917Z,12.50
2018-04-29T06:45:58.148Z,12.60
2018-04-29T06:48:25.674Z,12.60
2018-04-29T06:50:53.993Z,12.70
2018-04-29T06:53:21.586Z,12.80
2018-04-29T06:55:48.997Z,13.00
2018-04-29T06:58:17.319Z,13.10
2018-04-29T07:00:44.794Z,13.10
2018-04-29T07:03:12.242Z,13.00
2018-04-29T07:05:39.738Z,13.10
2018-04-29T07:08:07.274Z,13.10
2018-04-29T07:10:34.661Z,13.00
2018-04-29T07:13:02.122Z,12.90
2018-04-29T07:15:29.596Z,12.90
2018-04-29T07:17:57.060Z,12.90
2018-04-29T07:20:24.517Z,12.90
2018-04-29T07:22:52.761Z,13.00
2018-04-29T07:25:20.226Z,12.90
2018-04-29T07:27:47.688Z,13.00
2018-04-29T07:30:15.145Z,13.00
2018-04-29T07:32:42.613Z,13.20
2018-04-29T07:35:10.065Z,13.30
2018-04-29T07:37:37.532Z,13.30
2018-04-29T07:40:05.105Z,13.40
2018-04-29T07:42:32.496Z,13.50
2018-04-29T07:44:59.948Z,13.60
2018-04-29T07:47:27.414Z,13.90
2018-04-29T07:49:54.864Z,13.90
2018-04-29T07:52:22.419Z,14.00
2018-04-29T07:54:50.551Z,14.00
2018-04-29T07:57:18.021Z,13.90
2018-04-29T07:59:45.472Z,14.20
2018-04-29T08:02:12.941Z,14.10
2018-04-29T08:04:40.395Z,14.10
2018-04-29T08:07:08.625Z,14.40
2018-04-29T08:09:36.076Z,14.40
2018-04-29T08:12:03.549Z,14.60
2018-04-29T08:14:31.001Z,14.60
2018-04-29T08:16:58.475Z,14.60
2018-04-29T08:19:25.934Z,14.50
2018-04-29T08:21:53.397Z,14.40
2018-04-29T08:24:20.845Z,14.40
2018-04-29T08:26:49.072Z,14.50
2018-04-29T08:29:16.532Z,14.40
2018-04-29T08:31:43.998Z,14.60
2018-04-29T08:34:11.453Z,14.60
2018-04-29T08:36:39.684Z,15.00
2018-04-29T08:39:07.132Z,15.00
2018-04-29T08:41:34.600Z,15.00
2018-04-29T08:44:02.044Z,15.10
2018-04-29T08:46:30.273Z,15.00
2018-04-29T08:48:57.723Z,15.00
2018-04-29T08:51:25.197Z,15.00
2018-04-29T08:53:52.648Z,15.00
2018-04-29T08:56:20.153Z,15.20
2018-04-29T08:58:47.622Z,15.50
2018-04-29T09:01:15.072Z,15.80
2018-04-29T09:03:42.684Z,16.10
2018-04-29T09:06:10.037Z,16.30
2018-04-29T09:08:37.505Z,16.40
2018-04-29T09:11:04.957Z,16.40
2018-04-29T09:13:32.420Z,16.30
2018-04-29T09:15:59.873Z,16.30
2018-04-29T09:18:27.356Z,16.30
2018-04-29T09:20:54.817Z,16.40
2018-04-29T09:23:22.290Z,16.40
2018-04-29T09:25:49.740Z,16.30
2018-04-29T09:28:17.205Z,16.30
2018-04-29T09:30:45.425Z,16.60
2018-04-29T09:33:12.892Z,16.60
2018-04-29T09:35:40.346Z,16.60
2018-04-29T09:38:07.809Z,16.70
2018-04-29T09:40:35.260Z,16.90
2018-04-29T09:43:03.493Z,17.40
2018-04-29T09:45:30.948Z,17.40
2018-04-29T09:47:58.409Z,17.60
2018-04-29T09:50:25.869Z,17.60
2018-04-29T09:52:53.332Z,18.00
2018-04-29T09:55:21.564Z,18.70
2018-04-29T09:57:49.025Z,18.70
2018-04-29T10:00:16.480Z,19.20
2018-04-29T10:02:48.000Z,19.60
2018-04-29T10:05:15.436Z,19.80
2018-04-29T10:07:42.909Z,20.10
2018-04-29T10:10:10.369Z,20.30
2018-04-29T10:12:37.825Z,20.70
2018-04-29T10:15:05.285Z,20.80
2018-04-29T10:17:32.752Z,20.80
2018-04-29T10:20:00.204Z,20.80
2018-04-29T10:22:27.662Z,20.80
2018-04-29T10:24:55.880Z,20.80
2018-04-29T10:27:23.338Z,20.80
2018-04-29T10:29:50.797Z,20.80
2018-04-29T10:32:18.309Z,20.80
2018-04-29T10:34:45.761Z,20.90
2018-04-29T10:37:13.457Z,20.90
2018-04-29T10:39:40.924Z,20.80
2018-04-29T10:42:08.480Z,20.80
2018-04-29T10:44:35.940Z,20.80
2018-04-29T10:47:03.393Z,20.90
2018-04-29T10:49:30.868Z,21.10
2018-04-29T10:51:58.322Z,21.30
2018-04-29T10:54:26.565Z,21.20
2018-04-29T10:56:54.025Z,21.20
2018-04-29T10:59:21.480Z,21.10
2018-04-29T11:01:48.931Z,21.20
2018-04-29T11:04:16.472Z,21.20
2018-04-29T11:06:43.852Z,21.30
2018-04-29T11:09:12.080Z,21.80
2018-04-29T11:11:39.559Z,21.70
2018-04-29T11:14:06.997Z,21.70
2018-04-29T11:16:34.445Z,21.70
2018-04-29T11:19:02.669Z,21.70
2018-04-29T11:21:30.118Z,21.70
2018-04-29T11:23:57.587Z,21.60
2018-04-29T11:26:25.072Z,21.60
2018-04-29T11:28:52.533Z,21.70
2018-04-29T11:31:19.985Z,22.10
2018-04-29T11:33:47.461Z,22.40
2018-04-29T11:36:14.902Z,22.60
2018-04-29T11:38:43.128Z,23.10
2018-04-29T11:41:10.572Z,23.00
2018-04-29T11:43:38.800Z,23.20
2018-04-29T11:46:06.244Z,23.20
2018-04-29T11:48:33.706Z,23.30
2018-04-29T11:51:01.160Z,23.40
2018-04-29T11:53:29.380Z,23.80
2018-04-29T11:55:56.837Z,23.70
2018-04-29T11:58:24.316Z,23.90
2018-04-29T12:00:51.782Z,23.90
2018-04-29T12:03:19.242Z,24.00
2018-04-29T12:05:46.701Z,24.10
2018-04-29T12:08:14.171Z,23.90
2018-04-29T12:10:41.626Z,23.80
2018-04-29T12:13:09.857Z,23.80
2018-04-29T12:15:37.302Z,23.80
2018-04-29T12:18:04.773Z,23.80
2018-04-29T12:20:33.011Z,24.00
2018-04-29T12:23:00.474Z,23.90
2018-04-29T12:25:27.927Z,24.10
2018-04-29T12:27:55.385Z,24.30
2018-04-29T12:30:22.845Z,24.40
2018-04-29T12:32:50.304Z,24.40
2018-04-29T12:35:17.752Z,24.40
2018-04-29T12:37:45.980Z,24.40
2018-04-29T12:40:13.432Z,24.40
2018-04-29T12:42:40.892Z,24.40
2018-04-29T12:45:08.337Z,24.40
2018-04-29T12:47:36.562Z,24.30
2018-04-29T12:50:04.086Z,24.30
2018-04-29T12:52:31.549Z,24.50
2018-04-29T12:54:59.005Z,24.70
2018-04-29T12:57:26.457Z,24.80
2018-04-29T12:59:54.001Z,24.80
2018-04-29T13:02:21.473Z,24.80
2018-04-29T13:04:48.913Z,24.80
2018-04-29T13:07:17.136Z,24.80
2018-04-29T13:09:44.600Z,24.80
2018-04-29T13:12:12.041Z,24.90
2018-04-29T13:14:40.292Z,25.00
2018-04-29T13:17:07.741Z,25.00
2018-04-29T13:19:35.205Z,25.00
2018-04-29T13:22:02.672Z,25.10
2018-04-29T13:24:30.148Z,25.10
2018-04-29T13:26:57.589Z,25.00
2018-04-29T13:29:25.056Z,25.00
2018-04-29T13:31:52.501Z,25.10
2018-04-29T13:34:20.731Z,25.10
2018-04-29T13:36:48.201Z,25.10
2018-04-29T13:39:15.660Z,25.20
2018-04-29T13:41:43.314Z,25.20
2018-04-29T13:44:11.544Z,25.10
2018-04-29T13:46:38.993Z,25.10
2018-04-29T13:49:06.473Z,25.10
2018-04-29T13:51:33.920Z,25.20
2018-04-29T13:54:01.385Z,25.20
2018-04-29T13:56:28.915Z,25.20
2018-04-29T13:58:57.069Z,25.30
2018-04-29T14:01:24.513Z,25.30
2018-04-29T14:03:51.972Z,25.40
2018-04-29T14:06:19.416Z,25.40
2018-04-29T14:08:46.893Z,25.50
2018-04-29T14:11:15.115Z,25.50
2018-04-29T14:13:42.565Z,25.50
2018-04-29T14:16:10.082Z,25.50
2018-04-29T14:18:37.468Z,25.50
2018-04-29T14:21:04.922Z,25.50
2018-04-29T14:23:32.386Z,25.40
2018-04-29T14:25:59.840Z,25.40
2018-04-29T14:28:27.284Z,25.30
2018-04-29T14:30:54.746Z,25.20
2018-04-29T14:33:22.965Z,25.20
2018-04-29T14:35:50.420Z,25.20
2018-04-29T14:38:17.882Z,25.10
2018-04-29T14:40:45.332Z,24.90
2018-04-29T14:43:13.731Z,24.70
2018-04-29T14:45:41.211Z,24.60
2018-04-29T14:48:08.632Z,24.70
2018-04-29T14:50:36.084Z,24.50
2018-04-29T14:53:03.545Z,24.50
2018-04-29T14:55:31.100Z,24.40
2018-04-29T14:57:58.559Z,24.30
2018-04-29T15:00:26.022Z,24.20
2018-04-29T15:02:53.489Z,24.10
2018-04-29T15:05:20.945Z,24.00
2018-04-29T15:07:49.159Z,23.80
2018-04-29T15:10:16.620Z,23.80
2018-04-29T15:12:44.076Z,23.70
2018-04-29T15:15:11.796Z,23.60
2018-04-29T15:17:39.245Z,23.70
2018-04-29T15:20:06.705Z,23.70
2018-04-29T15:22:34.152Z,23.70
2018-04-29T15:25:02.377Z,23.60
2018-04-29T15:27:29.829Z,23.60
2018-04-29T15:29:57.331Z,23.60
2018-04-29T15:32:24.778Z,23.50
2018-04-29T15:34:52.241Z,23.50
2018-04-29T15:37:19.688Z,23.50
2018-04-29T15:39:47.149Z,23.60
2018-04-29T15:42:15.364Z,23.60
2018-04-29T15:44:43.752Z,23.60
2018-04-29T15:47:11.200Z,23.60
2018-04-29T15:49:39.445Z,23.60
2018-04-29T15:52:06.893Z,23.60
2018-04-29T15:54:34.360Z,23.50
2018-04-29T15:57:01.814Z,23.50
2018-04-29T15:59:29.308Z,23.40
2018-04-29T16:01:56.761Z,23.40
2018-04-29T16:04:24.225Z,23.30
2018-04-29T16:06:51.681Z,23.30
2018-04-29T16:09:19.145Z,23.30
2018-04-29T16:11:46.674Z,23.30
2018-04-29T16:14:14.828Z,23.40
2018-04-29T16:16:42.285Z,23.40
2018-04-29T16:19:09.744Z,23.30
2018-04-29T16:21:37.188Z,23.30
2018-04-29T16:24:05.416Z,23.20
2018-04-29T16:26:32.926Z,23.30
2018-04-29T16:29:01.901Z,23.00
2018-04-29T16:31:29.356Z,23.00
2018-04-29T16:33:56.813Z,22.90
2018-04-29T16:36:24.256Z,23.00
2018-04-29T16:38:52.495Z,22.90
2018-04-29T16:41:19.952Z,22.90
2018-04-29T16:43:47.401Z,22.80
2018-04-29T16:46:14.853Z,22.80
2018-04-29T16:48:43.078Z,22.90
2018-04-29T16:51:10.529Z,22.90
2018-04-29T16:53:37.991Z,22.90
2018-04-29T16:56:05.480Z,22.80
2018-04-29T16:58:32.936Z,22.90
2018-04-29T17:01:00.470Z,22.80
2018-04-29T17:03:27.926Z,22.80
2018-04-29T17:05:55.381Z,22.90
2018-04-29T17:08:22.840Z,22.80
2018-04-29T17:10:50.285Z,22.80
2018-04-29T17:13:17.744Z,22.70
2018-04-29T17:15:45.209Z,22.70
2018-04-29T17:18:12.673Z,22.60
2018-04-29T17:20:40.901Z,22.60
2018-04-29T17:23:08.477Z,22.60
2018-04-29T17:25:35.993Z,22.60
2018-04-29T17:28:04.209Z,22.40
2018-04-29T17:30:32.493Z,22.40
2018-04-29T17:33:00.693Z,22.30
2018-04-29T17:35:28.153Z,22.30
2018-04-29T17:37:55.605Z,22.20
2018-04-29T17:40:23.064Z,22.10
2018-04-29T17:42:51.280Z,22.10
2018-04-29T17:45:18.745Z,22.00
2018-04-29T17:47:46.229Z,22.00
2018-04-29T17:50:13.695Z,21.90
2018-04-29T17:52:41.148Z,21.90
2018-04-29T17:55:08.609Z,21.90
2018-04-29T17:57:36.085Z,21.80
2018-04-29T18:00:03.545Z,21.80
2018-04-29T18:02:31.756Z,21.70
2018-04-29T18:04:59.217Z,21.70
2018-04-29T18:07:26.664Z,21.60
2018-04-29T18:09:54.891Z,21.50
2018-04-29T18:12:22.477Z,21.50
2018-04-29T18:14:49.936Z,21.50
2018-04-29T18:17:17.385Z,21.40
2018-04-29T19:03:25.935Z,21.30
2018-04-29T19:05:59.160Z,20.30
2018-04-29T19:08:26.602Z,20.30
2018-04-29T19:10:54.060Z,20.20
2018-04-29T19:13:21.516Z,20.30
2018-04-29T19:15:48.976Z,20.20
2018-04-29T19:18:16.426Z,20.20
2018-04-29T19:20:44.651Z,20.10
2018-04-29T19:23:12.088Z,20.10
2018-04-29T19:25:40.412Z,20.10
2018-04-29T19:28:07.862Z,20.10
2018-04-29T19:30:35.321Z,20.00
2018-04-29T19:33:03.642Z,20.00
2018-04-29T19:35:31.090Z,19.90
2018-04-29T19:37:58.538Z,19.90
2018-04-29T19:40:26.760Z,19.90
2018-04-29T19:42:54.213Z,19.80
2018-04-29T19:45:21.673Z,19.80
2018-04-29T19:47:49.961Z,19.80
2018-04-29T19:50:17.432Z,19.80
2018-04-29T19:52:44.881Z,19.70
2018-04-29T19:55:13.126Z,19.60
2018-04-29T19:57:40.569Z,19.60
2018-04-29T20:00:08.033Z,19.60
2018-04-29T20:02:35.485Z,19.60
2018-04-29T20:05:03.704Z,19.50
2018-04-29T20:07:31.148Z,19.50
2018-04-29T20:09:58.611Z,19.40
2018-04-29T20:12:26.816Z,19.40
2018-04-29T20:14:54.282Z,19.40
2018-04-29T20:17:21.728Z,19.40
2018-04-29T20:19:49.948Z,19.40
2018-04-29T20:22:17.413Z,19.40
2018-04-29T20:24:45.621Z,19.40
2018-04-29T20:27:13.074Z,19.30
2018-04-29T20:29:40.537Z,19.30
2018-04-29T20:32:07.980Z,19.30
2018-04-29T20:34:36.202Z,19.20
2018-04-29T20:37:03.652Z,19.20
2018-04-29T20:39:31.109Z,19.20
2018-04-29T20:41:59.320Z,19.20
2018-04-29T20:44:26.778Z,19.10
2018-04-29T20:46:54.224Z,19.20
2018-04-29T20:49:22.450Z,19.10
2018-04-29T20:51:49.901Z,19.10
2018-04-29T20:54:17.360Z,19.10
2018-04-29T20:56:44.810Z,19.10
2018-04-29T20:59:13.042Z,19.00
2018-04-29T21:01:40.489Z,19.00
2018-04-29T21:04:07.937Z,19.00
2018-04-29T21:06:36.164Z,19.00
2018-04-29T21:09:03.619Z,18.90
2018-04-29T21:11:31.160Z,19.00
2018-04-29T21:13:59.381Z,19.00
2018-04-29T21:16:26.849Z,19.00
2018-04-29T21:18:54.288Z,18.90
2018-04-29T21:21:22.516Z,18.80
2018-04-29T21:23:49.960Z,18.80
2018-04-29T21:26:17.413Z,18.80
2018-04-29T21:28:45.631Z,18.80
2018-04-29T21:31:13.087Z,18.80
2018-04-29T21:33:40.550Z,18.90
2018-04-29T21:36:08.776Z,18.90
2018-04-29T21:38:36.230Z,18.90
2018-04-29T21:41:03.692Z,18.80
2018-04-29T21:43:31.149Z,18.90
2018-04-29T21:45:58.621Z,18.80
2018-04-29T21:48:26.846Z,18.80
2018-04-29T21:50:54.296Z,18.80
2018-04-29T21:53:21.757Z,18.70
2018-04-29T21:55:49.213Z,18.70
2018-04-29T21:58:16.669Z,18.70
2018-04-29T22:00:44.879Z,18.60
2018-04-29T22:03:12.340Z,18.60
2018-04-29T22:05:40.561Z,18.60
2018-04-29T22:08:08.016Z,18.50
2018-04-29T22:10:35.473Z,18.60
2018-04-29T22:13:02.920Z,18.50
2018-04-29T22:15:31.147Z,18.60
2018-04-29T22:17:58.593Z,18.60
2018-04-29T22:20:26.080Z,18.60
2018-04-29T22:22:53.533Z,18.60
2018-04-29T22:25:20.984Z,18.70
2018-04-29T22:27:48.436Z,18.70
2018-04-29T22:30:16.664Z,18.60
2018-04-29T22:32:44.108Z,18.60
2018-04-29T22:35:12.333Z,18.70
2018-04-29T22:37:39.781Z,18.70
2018-04-29T22:40:07.334Z,18.70
2018-04-29T22:42:35.550Z,18.60
2018-04-29T22:45:03.004Z,18.60
2018-04-29T22:47:30.509Z,18.40
2018-04-29T22:49:57.976Z,18.30
2018-04-29T22:52:25.417Z,18.50
2018-04-29T22:54:52.873Z,18.80
2018-04-29T22:57:21.090Z,18.90
2018-04-29T22:59:48.553Z,18.90
2018-04-29T23:02:16.001Z,18.90
2018-04-29T23:04:43.460Z,19.00
2018-04-29T23:07:11.677Z,19.10
2018-04-29T23:09:39.133Z,19.10
2018-04-29T23:12:06.621Z,19.00
2018-04-29T23:14:34.081Z,19.00
2018-04-29T23:17:01.538Z,18.90
2018-04-29T23:19:28.989Z,18.90
2018-04-29T23:21:57.220Z,18.60
2018-04-29T23:24:24.799Z,18.60
2018-04-29T23:26:52.256Z,18.60
2018-04-29T23:29:19.709Z,18.40
2018-04-29T23:31:47.157Z,18.20
2018-04-29T23:34:14.617Z,18.10
2018-04-29T23:36:42.828Z,17.90
2018-04-29T23:39:10.272Z,17.90
2018-04-29T23:41:38.496Z,17.80
2018-04-29T23:44:05.941Z,17.70
2018-04-29T23:46:33.409Z,17.70
2018-04-29T23:49:00.848Z,17.60
2018-04-29T23:51:29.083Z,17.50
2018-04-29T23:53:56.529Z,17.50
2018-04-29T23:56:24.757Z,17.50
2018-04-29T23:58:52.205Z,17.40
